sensor_id;sensor_type;location;lat;lon;timestamp;temperature;humidity
23291;DHT22;11814;44.686;10.842;2022-10-18T00:01:15;17.40;99.90
23291;DHT22;11814;44.686;10.842;2022-10-18T00:03:41;17.40;99.90
23291;DHT22;11814;44.686;10.842;2022-10-18T00:06:07;17.30;99.90
23291;DHT22;11814;44.686;10.842;2022-10-18T00:08:35;17.40;99.90
23291;DHT22;11814;44.686;10.842;2022-10-18T00:11:01;17.40;99.90
23291;DHT22;11814;44.686;10.842;2022-10-18T00:13:27;17.30;99.90
23291;DHT22;11814;44.686;10.842;2022-10-18T00:15:58;17.30;99.90
23291;DHT22;11814;44.686;10.842;2022-10-18T00:18:25;17.30;99.90
23291;DHT22;11814;44.686;10.842;2022-10-18T00:21:02;17.30;99.90
23291;DHT22;11814;44.686;10.842;2022-10-18T00:23:30;17.30;99.90
23291;DHT22;11814;44.686;10.842;2022-10-18T00:26:11;17.30;99.90
23291;DHT22;11814;44.686;10.842;2022-10-18T00:28:37;17.30;99.90
23291;DHT22;11814;44.686;10.842;2022-10-18T00:31:15;17.20;99.90
23291;DHT22;11814;44.686;10.842;2022-10-18T00:33:42;17.20;99.90
23291;DHT22;11814;44.686;10.842;2022-10-18T00:36:09;17.20;99.90
23291;DHT22;11814;44.686;10.842;2022-10-18T00:38:35;17.20;99.90
23291;DHT22;11814;44.686;10.842;2022-10-18T00:41:01;17.10;99.90
23291;DHT22;11814;44.686;10.842;2022-10-18T00:43:27;17.10;99.90
23291;DHT22;11814;44.686;10.842;2022-10-18T00:45:53;17.10;99.90
23291;DHT22;11814;44.686;10.842;2022-10-18T00:48:19;17.10;99.90
23291;DHT22;11814;44.686;10.842;2022-10-18T00:50:46;17.00;99.90
23291;DHT22;11814;44.686;10.842;2022-10-18T00:53:16;17.00;99.90
23291;DHT22;11814;44.686;10.842;2022-10-18T00:55:42;17.00;99.90
23291;DHT22;11814;44.686;10.842;2022-10-18T00:58:08;17.00;99.90
23291;DHT22;11814;44.686;10.842;2022-10-18T01:00:35;17.00;99.90
23291;DHT22;11814;44.686;10.842;2022-10-18T01:03:06;17.00;99.90
23291;DHT22;11814;44.686;10.842;2022-10-18T01:05:32;17.00;99.90
23291;DHT22;11814;44.686;10.842;2022-10-18T01:14:23;17.00;99.90
23291;DHT22;11814;44.686;10.842;2022-10-18T01:16:37;17.00;99.90
23291;DHT22;11814;44.686;10.842;2022-10-18T01:25:15;16.80;99.90
23291;DHT22;11814;44.686;10.842;2022-10-18T01:35:47;16.60;99.90
23291;DHT22;11814;44.686;10.842;2022-10-18T01:38:16;16.60;99.90
23291;DHT22;11814;44.686;10.842;2022-10-18T01:40:46;16.60;99.90
23291;DHT22;11814;44.686;10.842;2022-10-18T01:43:13;16.50;99.90
23291;DHT22;11814;44.686;10.842;2022-10-18T01:45:40;16.50;99.90
23291;DHT22;11814;44.686;10.842;2022-10-18T01:48:08;16.50;99.90
23291;DHT22;11814;44.686;10.842;2022-10-18T01:50:35;16.60;99.90
23291;DHT22;11814;44.686;10.842;2022-10-18T01:53:01;16.60;99.90
23291;DHT22;11814;44.686;10.842;2022-10-18T01:58:23;16.60;99.90
23291;DHT22;11814;44.686;10.842;2022-10-18T02:01:02;16.60;99.90
23291;DHT22;11814;44.686;10.842;2022-10-18T02:03:29;16.60;99.90
23291;DHT22;11814;44.686;10.842;2022-10-18T02:05:57;16.60;99.90
23291;DHT22;11814;44.686;10.842;2022-10-18T02:13:34;16.60;99.90
23291;DHT22;11814;44.686;10.842;2022-10-18T02:16:06;16.60;99.90
23291;DHT22;11814;44.686;10.842;2022-10-18T02:18:45;16.50;99.90
23291;DHT22;11814;44.686;10.842;2022-10-18T02:21:16;16.40;99.90
23291;DHT22;11814;44.686;10.842;2022-10-18T02:23:44;16.40;99.90
23291;DHT22;11814;44.686;10.842;2022-10-18T02:26:11;16.40;99.90
23291;DHT22;11814;44.686;10.842;2022-10-18T02:28:38;16.30;99.90
23291;DHT22;11814;44.686;10.842;2022-10-18T02:33:52;16.30;99.90
23291;DHT22;11814;44.686;10.842;2022-10-18T02:38:55;16.20;99.90
23291;DHT22;11814;44.686;10.842;2022-10-18T02:41:26;16.20;99.90
23291;DHT22;11814;44.686;10.842;2022-10-18T02:43:52;16.10;99.90
23291;DHT22;11814;44.686;10.842;2022-10-18T02:46:19;16.10;99.90
23291;DHT22;11814;44.686;10.842;2022-10-18T02:48:45;16.10;99.90
23291;DHT22;11814;44.686;10.842;2022-10-18T02:51:10;16.10;99.90
23291;DHT22;11814;44.686;10.842;2022-10-18T02:53:36;16.00;99.90
23291;DHT22;11814;44.686;10.842;2022-10-18T02:56:02;16.00;99.90
23291;DHT22;11814;44.686;10.842;2022-10-18T02:58:28;16.00;99.90
23291;DHT22;11814;44.686;10.842;2022-10-18T03:00:54;15.90;99.90
23291;DHT22;11814;44.686;10.842;2022-10-18T03:03:20;15.90;99.90
23291;DHT22;11814;44.686;10.842;2022-10-18T03:05:49;15.90;99.90
23291;DHT22;11814;44.686;10.842;2022-10-18T03:08:14;15.90;99.90
23291;DHT22;11814;44.686;10.842;2022-10-18T03:10:43;15.90;99.90
23291;DHT22;11814;44.686;10.842;2022-10-18T03:13:09;15.80;99.90
23291;DHT22;11814;44.686;10.842;2022-10-18T03:15:34;15.80;99.90
23291;DHT22;11814;44.686;10.842;2022-10-18T03:18:00;15.80;99.90
23291;DHT22;11814;44.686;10.842;2022-10-18T03:20:26;15.80;99.90
23291;DHT22;11814;44.686;10.842;2022-10-18T03:22:52;15.70;99.90
23291;DHT22;11814;44.686;10.842;2022-10-18T03:25:17;15.70;99.90
23291;DHT22;11814;44.686;10.842;2022-10-18T03:27:43;15.70;99.90
23291;DHT22;11814;44.686;10.842;2022-10-18T03:30:09;15.70;99.90
23291;DHT22;11814;44.686;10.842;2022-10-18T03:32:37;15.70;99.90
23291;DHT22;11814;44.686;10.842;2022-10-18T03:35:04;15.70;99.90
23291;DHT22;11814;44.686;10.842;2022-10-18T03:37:29;15.70;99.90
23291;DHT22;11814;44.686;10.842;2022-10-18T03:39:55;15.70;99.90
23291;DHT22;11814;44.686;10.842;2022-10-18T03:42:21;15.70;99.90
23291;DHT22;11814;44.686;10.842;2022-10-18T03:44:47;15.70;99.90
23291;DHT22;11814;44.686;10.842;2022-10-18T03:47:12;15.70;99.90
23291;DHT22;11814;44.686;10.842;2022-10-18T03:49:38;15.60;99.90
23291;DHT22;11814;44.686;10.842;2022-10-18T03:52:04;15.70;99.90
23291;DHT22;11814;44.686;10.842;2022-10-18T03:54:30;15.60;99.90
23291;DHT22;11814;44.686;10.842;2022-10-18T03:56:55;15.70;99.90
23291;DHT22;11814;44.686;10.842;2022-10-18T03:59:21;15.70;99.90
23291;DHT22;11814;44.686;10.842;2022-10-18T04:01:47;15.70;99.90
23291;DHT22;11814;44.686;10.842;2022-10-18T04:04:13;15.70;99.90
23291;DHT22;11814;44.686;10.842;2022-10-18T04:06:39;15.70;99.90
23291;DHT22;11814;44.686;10.842;2022-10-18T04:09:05;15.70;99.90
23291;DHT22;11814;44.686;10.842;2022-10-18T04:11:30;15.70;99.90
23291;DHT22;11814;44.686;10.842;2022-10-18T04:13:56;15.70;99.90
23291;DHT22;11814;44.686;10.842;2022-10-18T04:16:22;15.70;99.90
23291;DHT22;11814;44.686;10.842;2022-10-18T04:18:48;15.80;99.90
23291;DHT22;11814;44.686;10.842;2022-10-18T04:21:13;15.80;99.90
23291;DHT22;11814;44.686;10.842;2022-10-18T04:23:39;15.80;99.90
23291;DHT22;11814;44.686;10.842;2022-10-18T04:26:06;15.70;99.90
23291;DHT22;11814;44.686;10.842;2022-10-18T04:28:33;15.80;99.90
23291;DHT22;11814;44.686;10.842;2022-10-18T04:30:59;15.80;99.90
23291;DHT22;11814;44.686;10.842;2022-10-18T04:33:25;15.70;99.90
23291;DHT22;11814;44.686;10.842;2022-10-18T04:35:51;15.70;99.90
23291;DHT22;11814;44.686;10.842;2022-10-18T04:38:18;15.70;99.90
23291;DHT22;11814;44.686;10.842;2022-10-18T04:40:44;15.60;99.90
23291;DHT22;11814;44.686;10.842;2022-10-18T04:43:11;15.60;99.90
23291;DHT22;11814;44.686;10.842;2022-10-18T04:45:37;15.60;99.90
23291;DHT22;11814;44.686;10.842;2022-10-18T04:48:02;15.60;99.90
23291;DHT22;11814;44.686;10.842;2022-10-18T04:50:28;15.60;99.90
23291;DHT22;11814;44.686;10.842;2022-10-18T04:52:54;15.70;99.90
23291;DHT22;11814;44.686;10.842;2022-10-18T04:55:20;15.70;99.90
23291;DHT22;11814;44.686;10.842;2022-10-18T04:57:45;15.70;99.90
23291;DHT22;11814;44.686;10.842;2022-10-18T05:00:12;15.60;99.90
23291;DHT22;11814;44.686;10.842;2022-10-18T05:02:37;15.60;99.90
23291;DHT22;11814;44.686;10.842;2022-10-18T05:05:03;15.60;99.90
23291;DHT22;11814;44.686;10.842;2022-10-18T05:07:29;15.60;99.90
23291;DHT22;11814;44.686;10.842;2022-10-18T05:09:55;15.60;99.90
23291;DHT22;11814;44.686;10.842;2022-10-18T05:12:20;15.50;99.90
23291;DHT22;11814;44.686;10.842;2022-10-18T05:14:47;15.50;99.90
23291;DHT22;11814;44.686;10.842;2022-10-18T05:17:13;15.50;99.90
23291;DHT22;11814;44.686;10.842;2022-10-18T05:19:39;15.50;99.90
23291;DHT22;11814;44.686;10.842;2022-10-18T05:22:04;15.50;99.90
23291;DHT22;11814;44.686;10.842;2022-10-18T05:24:30;15.50;99.90
23291;DHT22;11814;44.686;10.842;2022-10-18T05:26:56;15.60;99.90
23291;DHT22;11814;44.686;10.842;2022-10-18T05:29:22;15.50;99.90
23291;DHT22;11814;44.686;10.842;2022-10-18T05:31:49;15.50;99.90
23291;DHT22;11814;44.686;10.842;2022-10-18T05:34:15;15.50;99.90
23291;DHT22;11814;44.686;10.842;2022-10-18T05:36:41;15.50;99.90
23291;DHT22;11814;44.686;10.842;2022-10-18T05:39:06;15.50;99.90
23291;DHT22;11814;44.686;10.842;2022-10-18T05:41:32;15.50;99.90
23291;DHT22;11814;44.686;10.842;2022-10-18T05:44:02;15.40;99.90
23291;DHT22;11814;44.686;10.842;2022-10-18T05:46:28;15.40;99.90
23291;DHT22;11814;44.686;10.842;2022-10-18T05:48:54;15.40;99.90
23291;DHT22;11814;44.686;10.842;2022-10-18T05:51:19;15.40;99.90
23291;DHT22;11814;44.686;10.842;2022-10-18T05:53:45;15.40;99.90
23291;DHT22;11814;44.686;10.842;2022-10-18T05:56:11;15.40;99.90
23291;DHT22;11814;44.686;10.842;2022-10-18T05:58:37;15.50;99.90
23291;DHT22;11814;44.686;10.842;2022-10-18T06:01:05;15.50;99.90
23291;DHT22;11814;44.686;10.842;2022-10-18T06:03:31;15.50;99.90
23291;DHT22;11814;44.686;10.842;2022-10-18T06:06:10;15.40;99.90
23291;DHT22;11814;44.686;10.842;2022-10-18T06:08:37;15.40;99.90
23291;DHT22;11814;44.686;10.842;2022-10-18T06:11:12;15.50;99.90
23291;DHT22;11814;44.686;10.842;2022-10-18T06:13:42;15.50;99.90
23291;DHT22;11814;44.686;10.842;2022-10-18T06:16:10;15.50;99.90
23291;DHT22;11814;44.686;10.842;2022-10-18T06:18:36;15.60;99.90
23291;DHT22;11814;44.686;10.842;2022-10-18T06:21:02;15.60;99.90
23291;DHT22;11814;44.686;10.842;2022-10-18T06:23:28;15.70;99.90
23291;DHT22;11814;44.686;10.842;2022-10-18T06:26:01;15.70;99.90
23291;DHT22;11814;44.686;10.842;2022-10-18T06:28:28;15.80;99.90
23291;DHT22;11814;44.686;10.842;2022-10-18T06:30:54;15.90;99.90
23291;DHT22;11814;44.686;10.842;2022-10-18T06:33:20;15.90;99.90
23291;DHT22;11814;44.686;10.842;2022-10-18T06:35:57;16.00;99.90
23291;DHT22;11814;44.686;10.842;2022-10-18T06:38:23;16.20;99.90
23291;DHT22;11814;44.686;10.842;2022-10-18T06:40:49;16.30;99.90
23291;DHT22;11814;44.686;10.842;2022-10-18T06:43:15;16.40;99.90
23291;DHT22;11814;44.686;10.842;2022-10-18T06:45:41;16.50;99.90
23291;DHT22;11814;44.686;10.842;2022-10-18T06:48:07;16.60;99.90
23291;DHT22;11814;44.686;10.842;2022-10-18T06:50:32;16.70;99.90
23291;DHT22;11814;44.686;10.842;2022-10-18T06:52:58;16.80;99.90
23291;DHT22;11814;44.686;10.842;2022-10-18T06:55:24;16.90;99.90
23291;DHT22;11814;44.686;10.842;2022-10-18T06:57:49;17.00;99.90
23291;DHT22;11814;44.686;10.842;2022-10-18T07:00:15;17.10;99.90
23291;DHT22;11814;44.686;10.842;2022-10-18T07:02:41;17.10;99.90
23291;DHT22;11814;44.686;10.842;2022-10-18T07:05:07;17.10;99.90
23291;DHT22;11814;44.686;10.842;2022-10-18T07:07:33;17.20;99.90
23291;DHT22;11814;44.686;10.842;2022-10-18T07:09:59;17.30;99.90
23291;DHT22;11814;44.686;10.842;2022-10-18T07:12:25;17.30;99.90
23291;DHT22;11814;44.686;10.842;2022-10-18T07:14:50;17.40;99.90
23291;DHT22;11814;44.686;10.842;2022-10-18T07:17:16;17.50;99.90
23291;DHT22;11814;44.686;10.842;2022-10-18T07:19:42;17.50;99.90
23291;DHT22;11814;44.686;10.842;2022-10-18T07:22:07;17.50;99.90
23291;DHT22;11814;44.686;10.842;2022-10-18T07:24:33;17.60;99.90
23291;DHT22;11814;44.686;10.842;2022-10-18T07:26:59;17.70;99.90
23291;DHT22;11814;44.686;10.842;2022-10-18T07:29:24;17.90;99.90
23291;DHT22;11814;44.686;10.842;2022-10-18T07:31:50;17.90;99.90
23291;DHT22;11814;44.686;10.842;2022-10-18T07:34:16;18.00;99.90
23291;DHT22;11814;44.686;10.842;2022-10-18T07:36:42;18.20;99.90
23291;DHT22;11814;44.686;10.842;2022-10-18T07:39:07;18.40;99.90
23291;DHT22;11814;44.686;10.842;2022-10-18T07:41:34;18.60;99.90
23291;DHT22;11814;44.686;10.842;2022-10-18T07:44:00;18.80;99.90
23291;DHT22;11814;44.686;10.842;2022-10-18T07:46:26;18.90;99.90
23291;DHT22;11814;44.686;10.842;2022-10-18T07:48:52;19.20;99.90
23291;DHT22;11814;44.686;10.842;2022-10-18T07:51:19;19.50;99.90
23291;DHT22;11814;44.686;10.842;2022-10-18T07:53:45;19.80;99.90
23291;DHT22;11814;44.686;10.842;2022-10-18T07:56:14;20.10;99.90
23291;DHT22;11814;44.686;10.842;2022-10-18T07:58:44;20.30;99.90
23291;DHT22;11814;44.686;10.842;2022-10-18T08:01:11;20.60;99.90
23291;DHT22;11814;44.686;10.842;2022-10-18T08:03:37;20.80;99.90
23291;DHT22;11814;44.686;10.842;2022-10-18T08:06:05;21.00;99.90
23291;DHT22;11814;44.686;10.842;2022-10-18T08:08:33;21.10;99.90
23291;DHT22;11814;44.686;10.842;2022-10-18T08:11:03;21.10;99.90
23291;DHT22;11814;44.686;10.842;2022-10-18T08:13:29;21.10;99.90
23291;DHT22;11814;44.686;10.842;2022-10-18T08:16:22;21.10;99.90
23291;DHT22;11814;44.686;10.842;2022-10-18T08:18:48;21.10;99.90
23291;DHT22;11814;44.686;10.842;2022-10-18T08:21:15;21.10;99.90
23291;DHT22;11814;44.686;10.842;2022-10-18T08:23:41;21.20;99.90
23291;DHT22;11814;44.686;10.842;2022-10-18T08:26:10;21.20;99.90
23291;DHT22;11814;44.686;10.842;2022-10-18T08:28:37;21.20;99.90
23291;DHT22;11814;44.686;10.842;2022-10-18T08:31:09;21.20;99.90
23291;DHT22;11814;44.686;10.842;2022-10-18T08:33:35;21.30;99.90
23291;DHT22;11814;44.686;10.842;2022-10-18T08:36:03;21.40;99.90
23291;DHT22;11814;44.686;10.842;2022-10-18T08:38:34;21.50;99.90
23291;DHT22;11814;44.686;10.842;2022-10-18T08:44:25;21.70;99.90
23291;DHT22;11814;44.686;10.842;2022-10-18T08:46:58;21.90;99.90
23291;DHT22;11814;44.686;10.842;2022-10-18T08:52:34;22.70;99.90
23291;DHT22;11814;44.686;10.842;2022-10-18T08:55:03;23.30;99.90
23291;DHT22;11814;44.686;10.842;2022-10-18T08:57:30;24.00;99.90
23291;DHT22;11814;44.686;10.842;2022-10-18T08:59:56;24.40;98.70
23291;DHT22;11814;44.686;10.842;2022-10-18T09:02:49;24.80;96.90
23291;DHT22;11814;44.686;10.842;2022-10-18T09:13:48;26.10;90.90
23291;DHT22;11814;44.686;10.842;2022-10-18T09:21:47;25.70;87.50
23291;DHT22;11814;44.686;10.842;2022-10-18T09:24:37;25.40;87.90
23291;DHT22;11814;44.686;10.842;2022-10-18T09:27:09;25.10;88.10
23291;DHT22;11814;44.686;10.842;2022-10-18T09:29:58;24.90;88.90
23291;DHT22;11814;44.686;10.842;2022-10-18T09:35:51;24.60;90.30
23291;DHT22;11814;44.686;10.842;2022-10-18T09:38:22;24.50;90.50
23291;DHT22;11814;44.686;10.842;2022-10-18T09:41:01;24.40;90.90
23291;DHT22;11814;44.686;10.842;2022-10-18T09:43:51;24.40;90.70
23291;DHT22;11814;44.686;10.842;2022-10-18T09:46:20;24.40;90.90
23291;DHT22;11814;44.686;10.842;2022-10-18T09:49:37;24.40;91.00
23291;DHT22;11814;44.686;10.842;2022-10-18T09:51:43;24.40;91.10
23291;DHT22;11814;44.686;10.842;2022-10-18T09:54:27;24.50;91.10
23291;DHT22;11814;44.686;10.842;2022-10-18T09:57:02;24.40;91.00
23291;DHT22;11814;44.686;10.842;2022-10-18T09:59:34;24.40;90.90
23291;DHT22;11814;44.686;10.842;2022-10-18T10:02:00;24.50;91.00
23291;DHT22;11814;44.686;10.842;2022-10-18T10:04:26;24.60;91.10
23291;DHT22;11814;44.686;10.842;2022-10-18T10:06:53;24.60;91.00
23291;DHT22;11814;44.686;10.842;2022-10-18T10:09:35;24.60;90.80
23291;DHT22;11814;44.686;10.842;2022-10-18T10:12:01;24.60;90.70
23291;DHT22;11814;44.686;10.842;2022-10-18T10:14:28;24.50;90.60
23291;DHT22;11814;44.686;10.842;2022-10-18T10:16:58;24.60;90.70
23291;DHT22;11814;44.686;10.842;2022-10-18T10:19:27;24.60;90.60
23291;DHT22;11814;44.686;10.842;2022-10-18T10:22:11;24.60;90.60
23291;DHT22;11814;44.686;10.842;2022-10-18T10:24:51;24.60;90.50
23291;DHT22;11814;44.686;10.842;2022-10-18T10:27:29;24.60;90.50
23291;DHT22;11814;44.686;10.842;2022-10-18T10:30:01;24.70;90.50
23291;DHT22;11814;44.686;10.842;2022-10-18T10:32:30;24.80;90.50
23291;DHT22;11814;44.686;10.842;2022-10-18T10:34:57;24.80;90.20
23291;DHT22;11814;44.686;10.842;2022-10-18T10:45:24;25.40;88.80
23291;DHT22;11814;44.686;10.842;2022-10-18T10:47:52;25.70;88.10
23291;DHT22;11814;44.686;10.842;2022-10-18T10:50:26;25.70;87.60
23291;DHT22;11814;44.686;10.842;2022-10-18T10:52:53;25.70;87.30
23291;DHT22;11814;44.686;10.842;2022-10-18T10:55:25;25.70;87.00
23291;DHT22;11814;44.686;10.842;2022-10-18T10:57:54;25.60;86.20
23291;DHT22;11814;44.686;10.842;2022-10-18T11:03:12;25.70;85.70
23291;DHT22;11814;44.686;10.842;2022-10-18T11:05:52;25.80;85.70
23291;DHT22;11814;44.686;10.842;2022-10-18T11:08:25;25.80;85.80
23291;DHT22;11814;44.686;10.842;2022-10-18T11:11:22;25.80;85.70
23291;DHT22;11814;44.686;10.842;2022-10-18T11:14:26;25.70;84.90
23291;DHT22;11814;44.686;10.842;2022-10-18T11:23:17;25.70;84.50
23291;DHT22;11814;44.686;10.842;2022-10-18T11:25:52;25.70;84.00
23291;DHT22;11814;44.686;10.842;2022-10-18T11:28:32;25.80;83.70
23291;DHT22;11814;44.686;10.842;2022-10-18T11:36:23;25.80;82.60
23291;DHT22;11814;44.686;10.842;2022-10-18T11:43:57;25.80;82.50
23291;DHT22;11814;44.686;10.842;2022-10-18T11:46:45;25.80;82.30
23291;DHT22;11814;44.686;10.842;2022-10-18T11:49:32;25.80;82.10
23291;DHT22;11814;44.686;10.842;2022-10-18T12:05:20;25.80;81.00
23291;DHT22;11814;44.686;10.842;2022-10-18T12:10:35;25.80;80.80
23291;DHT22;11814;44.686;10.842;2022-10-18T12:13:05;25.80;81.30
23291;DHT22;11814;44.686;10.842;2022-10-18T12:15:35;25.80;80.40
23291;DHT22;11814;44.686;10.842;2022-10-18T12:18:06;25.80;80.60
23291;DHT22;11814;44.686;10.842;2022-10-18T12:20:41;25.80;80.80
23291;DHT22;11814;44.686;10.842;2022-10-18T12:25:54;25.80;80.30
23291;DHT22;11814;44.686;10.842;2022-10-18T12:28:32;25.90;79.90
23291;DHT22;11814;44.686;10.842;2022-10-18T12:33:53;25.90;79.70
23291;DHT22;11814;44.686;10.842;2022-10-18T12:38:52;25.80;79.60
23291;DHT22;11814;44.686;10.842;2022-10-18T12:41:26;25.80;79.20
23291;DHT22;11814;44.686;10.842;2022-10-18T12:43:56;25.70;79.20
23291;DHT22;11814;44.686;10.842;2022-10-18T12:46:23;25.80;79.10
23291;DHT22;11814;44.686;10.842;2022-10-18T12:49:10;25.80;78.90
23291;DHT22;11814;44.686;10.842;2022-10-18T12:51:49;25.80;78.40
23291;DHT22;11814;44.686;10.842;2022-10-18T12:54:19;25.80;78.00
23291;DHT22;11814;44.686;10.842;2022-10-18T12:56:46;25.80;78.10
23291;DHT22;11814;44.686;10.842;2022-10-18T13:09:36;25.70;79.30
23291;DHT22;11814;44.686;10.842;2022-10-18T13:17:48;25.50;80.00
23291;DHT22;11814;44.686;10.842;2022-10-18T13:32:05;25.60;80.50
23291;DHT22;11814;44.686;10.842;2022-10-18T13:34:33;25.60;80.50
23291;DHT22;11814;44.686;10.842;2022-10-18T13:39:36;25.60;80.40
23291;DHT22;11814;44.686;10.842;2022-10-18T13:44:36;25.50;80.40
23291;DHT22;11814;44.686;10.842;2022-10-18T14:01:13;25.40;80.10
23291;DHT22;11814;44.686;10.842;2022-10-18T14:06:17;25.40;79.50
23291;DHT22;11814;44.686;10.842;2022-10-18T14:09:02;25.40;79.50
23291;DHT22;11814;44.686;10.842;2022-10-18T14:11:36;25.40;79.40
23291;DHT22;11814;44.686;10.842;2022-10-18T14:21:42;25.30;79.20
23291;DHT22;11814;44.686;10.842;2022-10-18T14:24:21;25.20;79.20
23291;DHT22;11814;44.686;10.842;2022-10-18T14:27:11;25.30;79.20
23291;DHT22;11814;44.686;10.842;2022-10-18T14:29:37;25.30;79.10
23291;DHT22;11814;44.686;10.842;2022-10-18T14:32:12;25.20;79.20
23291;DHT22;11814;44.686;10.842;2022-10-18T14:34:43;25.20;79.40
23291;DHT22;11814;44.686;10.842;2022-10-18T14:37:24;25.20;79.60
23291;DHT22;11814;44.686;10.842;2022-10-18T14:39:50;25.20;79.90
23291;DHT22;11814;44.686;10.842;2022-10-18T14:42:22;25.10;79.90
23291;DHT22;11814;44.686;10.842;2022-10-18T14:44:49;25.10;80.20
23291;DHT22;11814;44.686;10.842;2022-10-18T14:47:26;25.10;80.60
23291;DHT22;11814;44.686;10.842;2022-10-18T14:49:53;25.10;80.70
23291;DHT22;11814;44.686;10.842;2022-10-18T14:52:45;25.10;80.70
23291;DHT22;11814;44.686;10.842;2022-10-18T14:55:20;25.00;80.90
23291;DHT22;11814;44.686;10.842;2022-10-18T14:57:47;25.00;81.10
23291;DHT22;11814;44.686;10.842;2022-10-18T15:00:21;25.00;81.10
23291;DHT22;11814;44.686;10.842;2022-10-18T15:02:48;25.00;81.30
23291;DHT22;11814;44.686;10.842;2022-10-18T15:05:24;24.90;81.20
23291;DHT22;11814;44.686;10.842;2022-10-18T15:07:51;24.90;81.20
23291;DHT22;11814;44.686;10.842;2022-10-18T15:10:32;24.90;82.00
23291;DHT22;11814;44.686;10.842;2022-10-18T15:13:01;24.80;81.30
23291;DHT22;11814;44.686;10.842;2022-10-18T15:15:32;24.80;81.50
23291;DHT22;11814;44.686;10.842;2022-10-18T15:17:58;24.80;81.70
23291;DHT22;11814;44.686;10.842;2022-10-18T15:20:38;24.80;82.00
23291;DHT22;11814;44.686;10.842;2022-10-18T15:23:24;24.70;82.10
23291;DHT22;11814;44.686;10.842;2022-10-18T15:25:52;24.70;82.40
23291;DHT22;11814;44.686;10.842;2022-10-18T15:28:43;24.70;82.50
23291;DHT22;11814;44.686;10.842;2022-10-18T15:31:25;24.60;82.90
23291;DHT22;11814;44.686;10.842;2022-10-18T15:33:53;24.60;83.00
23291;DHT22;11814;44.686;10.842;2022-10-18T15:36:28;24.50;83.10
23291;DHT22;11814;44.686;10.842;2022-10-18T15:39:18;24.40;83.30
23291;DHT22;11814;44.686;10.842;2022-10-18T15:44:22;24.30;84.40
23291;DHT22;11814;44.686;10.842;2022-10-18T15:46:49;24.30;84.80
23291;DHT22;11814;44.686;10.842;2022-10-18T15:54:49;24.10;85.90
23291;DHT22;11814;44.686;10.842;2022-10-18T15:57:17;24.00;86.10
23291;DHT22;11814;44.686;10.842;2022-10-18T15:59:57;23.90;86.60
23291;DHT22;11814;44.686;10.842;2022-10-18T16:02:25;23.80;87.10
23291;DHT22;11814;44.686;10.842;2022-10-18T16:04:51;23.80;87.60
23291;DHT22;11814;44.686;10.842;2022-10-18T16:07:16;23.70;88.00
23291;DHT22;11814;44.686;10.842;2022-10-18T16:09:42;23.60;88.20
23291;DHT22;11814;44.686;10.842;2022-10-18T16:12:08;23.50;88.70
23291;DHT22;11814;44.686;10.842;2022-10-18T16:14:33;23.50;89.40
23291;DHT22;11814;44.686;10.842;2022-10-18T16:17:04;23.40;90.00
23291;DHT22;11814;44.686;10.842;2022-10-18T16:19:30;23.30;90.20
23291;DHT22;11814;44.686;10.842;2022-10-18T16:21:57;23.20;90.50
23291;DHT22;11814;44.686;10.842;2022-10-18T16:24:23;23.10;90.70
23291;DHT22;11814;44.686;10.842;2022-10-18T16:26:49;23.10;90.90
23291;DHT22;11814;44.686;10.842;2022-10-18T16:29:20;23.00;91.20
23291;DHT22;11814;44.686;10.842;2022-10-18T16:31:49;23.00;91.50
23291;DHT22;11814;44.686;10.842;2022-10-18T16:34:16;22.80;91.70
23291;DHT22;11814;44.686;10.842;2022-10-18T16:36:42;22.80;92.00
23291;DHT22;11814;44.686;10.842;2022-10-18T16:39:15;22.70;92.00
23291;DHT22;11814;44.686;10.842;2022-10-18T16:41:41;22.60;92.10
23291;DHT22;11814;44.686;10.842;2022-10-18T16:44:07;22.60;92.10
23291;DHT22;11814;44.686;10.842;2022-10-18T16:46:33;22.50;92.30
23291;DHT22;11814;44.686;10.842;2022-10-18T16:49:00;22.40;92.40
23291;DHT22;11814;44.686;10.842;2022-10-18T16:51:26;22.30;92.70
23291;DHT22;11814;44.686;10.842;2022-10-18T16:53:52;22.20;92.90
23291;DHT22;11814;44.686;10.842;2022-10-18T16:56:24;22.20;93.20
23291;DHT22;11814;44.686;10.842;2022-10-18T16:58:52;22.10;93.50
23291;DHT22;11814;44.686;10.842;2022-10-18T17:01:19;22.10;93.70
23291;DHT22;11814;44.686;10.842;2022-10-18T17:03:46;22.00;94.00
23291;DHT22;11814;44.686;10.842;2022-10-18T17:06:21;22.00;94.40
23291;DHT22;11814;44.686;10.842;2022-10-18T17:08:47;21.90;94.70
23291;DHT22;11814;44.686;10.842;2022-10-18T17:11:14;21.90;95.00
23291;DHT22;11814;44.686;10.842;2022-10-18T17:13:40;21.80;95.20
23291;DHT22;11814;44.686;10.842;2022-10-18T17:16:08;21.70;95.30
23291;DHT22;11814;44.686;10.842;2022-10-18T17:18:43;21.70;95.70
23291;DHT22;11814;44.686;10.842;2022-10-18T17:21:09;21.60;96.00
23291;DHT22;11814;44.686;10.842;2022-10-18T17:23:34;21.60;96.50
23291;DHT22;11814;44.686;10.842;2022-10-18T17:26:00;21.60;96.90
23291;DHT22;11814;44.686;10.842;2022-10-18T17:28:26;21.50;97.30
23291;DHT22;11814;44.686;10.842;2022-10-18T17:30:51;21.50;97.70
23291;DHT22;11814;44.686;10.842;2022-10-18T17:33:17;21.50;98.20
23291;DHT22;11814;44.686;10.842;2022-10-18T17:35:43;21.40;98.70
23291;DHT22;11814;44.686;10.842;2022-10-18T17:38:09;21.30;99.20
23291;DHT22;11814;44.686;10.842;2022-10-18T17:40:39;21.30;99.70
23291;DHT22;11814;44.686;10.842;2022-10-18T17:43:05;21.20;99.60
23291;DHT22;11814;44.686;10.842;2022-10-18T17:45:30;21.20;99.30
23291;DHT22;11814;44.686;10.842;2022-10-18T17:47:56;21.10;99.20
23291;DHT22;11814;44.686;10.842;2022-10-18T17:50:22;21.00;99.10
23291;DHT22;11814;44.686;10.842;2022-10-18T17:52:48;21.00;99.30
23291;DHT22;11814;44.686;10.842;2022-10-18T17:55:14;21.00;99.50
23291;DHT22;11814;44.686;10.842;2022-10-18T17:57:41;20.90;99.70
23291;DHT22;11814;44.686;10.842;2022-10-18T18:00:08;20.90;99.90
23291;DHT22;11814;44.686;10.842;2022-10-18T18:02:35;20.90;99.90
23291;DHT22;11814;44.686;10.842;2022-10-18T18:05:01;20.90;99.90
23291;DHT22;11814;44.686;10.842;2022-10-18T18:07:27;20.90;99.90
23291;DHT22;11814;44.686;10.842;2022-10-18T18:09:53;20.80;99.90
23291;DHT22;11814;44.686;10.842;2022-10-18T18:12:18;20.80;99.90
23291;DHT22;11814;44.686;10.842;2022-10-18T18:14:45;20.70;99.90
23291;DHT22;11814;44.686;10.842;2022-10-18T18:17:11;20.70;99.90
23291;DHT22;11814;44.686;10.842;2022-10-18T18:19:37;20.70;99.90
23291;DHT22;11814;44.686;10.842;2022-10-18T18:22:02;20.60;99.90